Strona główna
METAR-TAF:

METAR-TAF

Lotnisko :

Elsenborn

Bütgenbach, Belgia

Szerokość geograficzna: 50-28N, Długość geograficzna: 006-11E, wysokość: 564 m

Aktualna obserwacja pogody

Raport powstał 18 minut temu, godzina 12:55 UTC
Wiatr 7 kt od zachód
Temperatura 2°C
Wilgotność 87%
Ciśnienie 1024 hPa
Widzialność 10 km lub więcej

METAR: EBLB 181255Z AUTO 28007KT 9999 BKN010/// 02/00 Q1024 GRN

czas: 14:13 (13:13 UTC)


TAF: brakujący

Obserwacja i prognoza pogody dla ponad 4000 lotnisk (raport METAR i TAF).

Dostępne stacje oznaczono żółtymi i czerwonymi punktami na mapie.

Najedź kursorem aby zobaczyć nazwę stacji.

Kliknij aby zobaczyć obserwacje i prognozy pogody.

Aby zmienić mapę: kliknij na zielony przycisk z czarnym krzyżykiem, aby powiększyć; na zielony przycisk z myślnikiem, aby pomniejszyć; na zielone strzałki, aby przejść do map sąsiednich.


METAR-TAF: